createdAt,value
2018-11-20T00:00:10.299Z,3.96
2018-11-20T00:01:10.532Z,3.82
2018-11-20T00:02:10.517Z,3.83
2018-11-20T00:03:10.227Z,3.86
2018-11-20T00:04:10.474Z,3.89
2018-11-20T00:05:09.950Z,3.79
2018-11-20T00:06:10.156Z,3.76
2018-11-20T00:07:10.139Z,3.64
2018-11-20T00:08:10.386Z,3.76
2018-11-20T00:09:10.090Z,3.6
2018-11-20T00:10:10.136Z,3.65
2018-11-20T00:11:10.315Z,3.67
2018-11-20T00:12:10.023Z,3.61
2018-11-20T00:13:10.275Z,3.6
2018-11-20T00:14:09.990Z,3.62
2018-11-20T00:15:10.233Z,3.57
2018-11-20T00:16:09.946Z,3.61
2018-11-20T00:17:09.921Z,3.62
2018-11-20T00:18:10.159Z,3.49
2018-11-20T00:19:09.607Z,3.52
2018-11-20T00:20:10.111Z,3.54
2018-11-20T00:21:09.833Z,3.46
2018-11-20T00:22:10.077Z,3.46
2018-11-20T00:23:09.790Z,3.53
2018-11-20T00:24:09.765Z,3.58
2018-11-20T00:25:09.756Z,3.49
2018-11-20T00:26:09.721Z,3.54
2018-11-20T00:27:09.703Z,3.53
2018-11-20T00:28:09.707Z,3.49
2018-11-20T00:29:09.652Z,3.49
2018-11-20T00:30:09.633Z,3.44
2018-11-20T00:31:09.613Z,3.46
2018-11-20T00:32:09.852Z,3.39
2018-11-20T00:33:09.569Z,3.42
2018-11-20T00:34:09.545Z,3.36
2018-11-20T00:35:09.794Z,3.42
2018-11-20T00:36:09.496Z,3.4
2018-11-20T00:37:09.745Z,3.42
2018-11-20T00:38:09.739Z,3.36
2018-11-20T00:39:09.171Z,3.28
2018-11-20T00:40:09.416Z,3.36
2018-11-20T00:41:09.125Z,3.31
2018-11-20T00:42:09.631Z,3.33
2018-11-20T00:43:09.630Z,3.33
2018-11-20T00:44:09.320Z,3.4
2018-11-20T00:45:09.300Z,3.31
2018-11-20T00:46:09.018Z,3.31
2018-11-20T00:47:08.992Z,3.36
2018-11-20T00:48:09.492Z,3.36
2018-11-20T00:49:09.511Z,3.33
2018-11-20T00:50:09.208Z,3.3
2018-11-20T00:51:09.182Z,3.28
2018-11-20T00:52:09.151Z,3.25
2018-11-20T00:53:09.123Z,3.23
2018-11-20T00:54:09.385Z,3.2
2018-11-20T00:55:09.354Z,3.28
2018-11-20T00:56:09.323Z,3.24
2018-11-20T00:57:10.159Z,3.31
2018-11-20T00:58:09.019Z,3.27
2018-11-20T00:59:08.989Z,3.23
2018-11-20T01:00:09.234Z,3.18
2018-11-20T01:01:08.941Z,3.24
2018-11-20T01:02:08.928Z,3.31
2018-11-20T01:03:08.901Z,3.25
2018-11-20T01:04:09.092Z,3.25
2018-11-20T01:05:08.860Z,3.34
2018-11-20T01:06:08.835Z,3.25
2018-11-20T01:07:08.929Z,3.42
2018-11-20T01:08:08.796Z,3.44
2018-11-20T01:09:08.771Z,3.31
2018-11-20T01:10:08.751Z,3.23
2018-11-20T01:11:08.725Z,3.42
2018-11-20T01:12:08.717Z,3.39
2018-11-20T01:13:08.681Z,3.42
2018-11-20T01:14:09.136Z,3.31
2018-11-20T01:15:08.639Z,3.42
2018-11-20T01:16:08.670Z,3.4
2018-11-20T01:17:08.855Z,3.49
2018-11-20T01:18:08.571Z,3.44
2018-11-20T01:19:08.810Z,3.5
2018-11-20T01:20:08.532Z,3.52
2018-11-20T01:21:08.514Z,3.43
2018-11-20T01:22:08.476Z,3.39
2018-11-20T01:23:08.515Z,3.49
2018-11-20T01:24:08.720Z,3.49
2018-11-20T01:25:08.146Z,3.47
2018-11-20T01:26:08.683Z,3.49
2018-11-20T01:27:08.373Z,3.58
2018-11-20T01:28:08.088Z,3.58
2018-11-20T01:29:08.330Z,3.58
2018-11-20T01:30:08.048Z,3.6
2018-11-20T01:31:08.024Z,3.6
2018-11-20T01:32:08.531Z,3.57
2018-11-20T01:33:08.235Z,3.57
2018-11-20T01:34:07.955Z,3.58
2018-11-20T01:35:08.202Z,3.6
2018-11-20T01:36:08.445Z,3.61
2018-11-20T01:37:08.417Z,3.53
2018-11-20T01:38:08.396Z,3.61
2018-11-20T01:39:07.842Z,3.57
2018-11-20T01:40:08.103Z,3.62
2018-11-20T01:41:08.065Z,3.62
2018-11-20T01:42:08.043Z,3.68
2018-11-20T01:43:08.033Z,3.65
2018-11-20T01:44:08.015Z,3.75
2018-11-20T01:45:07.975Z,3.61
2018-11-20T01:46:07.961Z,3.72
2018-11-20T01:47:07.664Z,3.65
2018-11-20T01:48:07.959Z,3.72
2018-11-20T01:49:07.887Z,3.72
2018-11-20T01:50:08.143Z,3.71
2018-11-20T01:51:07.856Z,3.82
2018-11-20T01:52:07.817Z,3.75
2018-11-20T01:53:08.064Z,3.75
2018-11-20T01:54:07.780Z,3.71
2018-11-20T01:55:07.763Z,3.75
2018-11-20T01:56:07.479Z,3.7
2018-11-20T01:57:07.973Z,3.75
2018-11-20T01:58:07.700Z,3.83
2018-11-20T01:59:07.409Z,3.88
2018-11-20T02:00:07.930Z,3.86
2018-11-20T02:01:07.369Z,3.86
2018-11-20T02:02:07.342Z,3.88
2018-11-20T02:03:07.849Z,3.82
2018-11-20T02:04:08.193Z,3.86
2018-11-20T02:05:07.292Z,3.85
2018-11-20T02:06:07.518Z,3.89
2018-11-20T02:07:07.776Z,3.94
2018-11-20T02:08:07.748Z,3.89
2018-11-20T02:09:07.717Z,3.88
2018-11-20T02:10:07.168Z,3.92
2018-11-20T02:11:07.149Z,3.88
2018-11-20T02:12:07.658Z,3.88
2018-11-20T02:13:07.371Z,3.86
2018-11-20T02:14:07.350Z,3.9
2018-11-20T02:15:07.604Z,3.92
2018-11-20T02:16:07.045Z,3.9
2018-11-20T02:17:07.018Z,3.98
2018-11-20T02:18:07.259Z,3.96
2018-11-20T02:19:07.243Z,3.96
2018-11-20T02:20:07.485Z,3.97
2018-11-20T02:21:06.937Z,3.97
2018-11-20T02:22:07.174Z,4.01
2018-11-20T02:23:07.150Z,3.97
2018-11-20T02:24:07.395Z,4
2018-11-20T02:25:07.375Z,3.98
2018-11-20T02:26:07.348Z,3.97
2018-11-20T02:27:07.338Z,4.04
2018-11-20T02:28:07.042Z,4.04
2018-11-20T02:29:07.063Z,3.96
2018-11-20T02:30:07.012Z,4.06
2018-11-20T02:31:07.239Z,3.97
2018-11-20T02:32:07.216Z,4.01
2018-11-20T02:33:06.929Z,4.04
2018-11-20T02:34:06.912Z,4
2018-11-20T02:35:06.634Z,4.04
2018-11-20T02:36:07.131Z,4.01
2018-11-20T02:37:06.585Z,4
2018-11-20T02:38:06.559Z,4.04
2018-11-20T02:39:06.800Z,4.06
2018-11-20T02:40:06.777Z,4.06
2018-11-20T02:41:07.066Z,4.06
2018-11-20T02:42:07.008Z,4.1
2018-11-20T02:43:06.719Z,4.15
2018-11-20T02:44:06.464Z,3.94
2018-11-20T02:45:06.412Z,4.04
2018-11-20T02:46:06.393Z,3.94
2018-11-20T02:47:06.749Z,4
2018-11-20T02:48:06.614Z,4.03
2018-11-20T02:49:07.133Z,3.98
2018-11-20T02:50:06.564Z,4.08
2018-11-20T02:51:06.573Z,4.06
2018-11-20T02:52:06.534Z,4.06
2018-11-20T02:53:06.495Z,4.03
2018-11-20T02:54:06.476Z,4.15
2018-11-20T02:55:06.730Z,4.04
2018-11-20T02:56:06.436Z,4.08
2018-11-20T02:57:06.475Z,4.1
2018-11-20T02:58:06.658Z,4.06
2018-11-20T02:59:06.364Z,4.12
2018-11-20T03:00:06.613Z,4.18
2018-11-20T03:01:06.344Z,4.06
2018-11-20T03:02:06.303Z,4.1
2018-11-20T03:03:06.289Z,4.14
2018-11-20T03:04:06.729Z,4.1
2018-11-20T03:05:06.506Z,4.14
2018-11-20T03:06:06.222Z,4.08
2018-11-20T03:07:06.195Z,4.06
2018-11-20T03:08:06.447Z,4.1
2018-11-20T03:09:06.419Z,4.07
2018-11-20T03:10:05.868Z,4.12
2018-11-20T03:11:06.108Z,4.07
2018-11-20T03:12:06.352Z,4.08
2018-11-20T03:13:06.332Z,4.07
2018-11-20T03:14:05.786Z,4.08
2018-11-20T03:15:06.029Z,4.14
2018-11-20T03:16:05.741Z,4.18
2018-11-20T03:17:06.245Z,4.04
2018-11-20T03:18:06.228Z,4.07
2018-11-20T03:19:05.675Z,4.16
2018-11-20T03:20:05.915Z,4.12
2018-11-20T03:21:06.162Z,4.15
2018-11-20T03:22:05.876Z,4.15
2018-11-20T03:23:06.128Z,4.08
2018-11-20T03:24:05.833Z,4.1
2018-11-20T03:25:05.816Z,4.14
2018-11-20T03:26:05.798Z,4.08
2018-11-20T03:27:06.470Z,4.14
2018-11-20T03:28:05.479Z,4.14
2018-11-20T03:29:05.988Z,4.19
2018-11-20T03:30:05.974Z,4.16
2018-11-20T03:31:05.692Z,4.18
2018-11-20T03:32:05.929Z,4.1
2018-11-20T03:33:05.634Z,4.15
2018-11-20T03:34:05.614Z,4.21
2018-11-20T03:35:05.593Z,4.19
2018-11-20T03:36:05.674Z,4.18
2018-11-20T03:37:05.810Z,4.19
2018-11-20T03:38:05.793Z,4.14
2018-11-20T03:39:05.509Z,4.21
2018-11-20T03:40:05.485Z,4.16
2018-11-20T03:41:05.724Z,4.14
2018-11-20T03:42:05.441Z,4.21
2018-11-20T03:43:05.700Z,4.22
2018-11-20T03:44:05.133Z,4.21
2018-11-20T03:45:05.384Z,4.25
2018-11-20T03:46:05.623Z,4.26
2018-11-20T03:47:05.067Z,4.22
2018-11-20T03:48:05.659Z,4.25
2018-11-20T03:49:05.028Z,4.24
2018-11-20T03:50:05.280Z,4.24
2018-11-20T03:51:05.510Z,4.21
2018-11-20T03:52:05.484Z,4.16
2018-11-20T03:53:05.469Z,4.25
2018-11-20T03:54:05.181Z,4.21
2018-11-20T03:55:05.421Z,4.25
2018-11-20T03:56:05.403Z,4.25
2018-11-20T03:57:05.382Z,4.24
2018-11-20T03:58:05.098Z,4.22
2018-11-20T03:59:05.074Z,4.25
2018-11-20T04:00:04.786Z,4.24
2018-11-20T04:01:05.298Z,4.24
2018-11-20T04:02:05.014Z,4.25
2018-11-20T04:03:05.255Z,4.22
2018-11-20T04:04:04.972Z,4.19
2018-11-20T04:05:04.682Z,4.29
2018-11-20T04:06:05.185Z,4.26
2018-11-20T04:07:05.166Z,4.25
2018-11-20T04:08:04.622Z,4.28
2018-11-20T04:09:04.591Z,4.19
2018-11-20T04:10:04.836Z,4.33
2018-11-20T04:11:04.816Z,4.22
2018-11-20T04:12:04.803Z,4.24
2018-11-20T04:13:04.507Z,4.32
2018-11-20T04:14:04.754Z,4.26
2018-11-20T04:15:04.999Z,4.29
2018-11-20T04:16:04.750Z,4.32
2018-11-20T04:17:04.948Z,4.29
2018-11-20T04:18:04.898Z,4.26
2018-11-20T04:19:04.647Z,4.32
2018-11-20T04:20:04.628Z,4.29
2018-11-20T04:21:04.609Z,4.29
2018-11-20T04:22:04.841Z,4.29
2018-11-20T04:23:04.585Z,4.36
2018-11-20T04:24:04.829Z,4.22
2018-11-20T04:25:04.791Z,4.33
2018-11-20T04:26:04.761Z,4.24
2018-11-20T04:27:04.799Z,4.28
2018-11-20T04:28:04.449Z,4.24
2018-11-20T04:29:04.438Z,4.37
2018-11-20T04:30:04.419Z,4.29
2018-11-20T04:31:04.394Z,4.32
2018-11-20T04:32:04.371Z,4.25
2018-11-20T04:33:04.109Z,4.29
2018-11-20T04:34:04.600Z,4.26
2018-11-20T04:35:04.573Z,4.24
2018-11-20T04:36:04.281Z,4.28
2018-11-20T04:37:04.260Z,4.26
2018-11-20T04:38:04.504Z,4.22
2018-11-20T04:39:04.491Z,4.33
2018-11-20T04:40:04.195Z,4.26
2018-11-20T04:41:04.233Z,4.29
2018-11-20T04:42:04.154Z,4.22
2018-11-20T04:43:04.125Z,4.25
2018-11-20T04:44:04.110Z,4.28
2018-11-20T04:45:04.104Z,4.25
2018-11-20T04:46:04.064Z,4.22
2018-11-20T04:47:04.042Z,4.24
2018-11-20T04:48:04.286Z,4.28
2018-11-20T04:49:04.275Z,4.22
2018-11-20T04:50:04.655Z,4.19
2018-11-20T04:51:04.221Z,4.19
2018-11-20T04:52:03.973Z,4.21
2018-11-20T04:53:03.651Z,4.22
2018-11-20T04:54:04.150Z,4.28
2018-11-20T04:55:04.138Z,4.33
2018-11-20T04:56:04.118Z,4.25
2018-11-20T04:57:03.571Z,4.25
2018-11-20T04:58:04.074Z,4.25
2018-11-20T04:59:03.795Z,4.26
2018-11-20T05:00:03.771Z,4.26
2018-11-20T05:01:04.028Z,4.25
2018-11-20T05:02:03.729Z,4.29
2018-11-20T05:03:03.964Z,4.26
2018-11-20T05:04:04.148Z,4.29
2018-11-20T05:05:03.955Z,4.26
2018-11-20T05:06:03.895Z,4.24
2018-11-20T05:07:03.610Z,4.29
2018-11-20T05:08:03.601Z,4.25
2018-11-20T05:09:03.568Z,4.26
2018-11-20T05:10:03.284Z,4.25
2018-11-20T05:11:03.787Z,4.28
2018-11-20T05:12:03.504Z,4.19
2018-11-20T05:13:03.273Z,4.29
2018-11-20T05:14:03.460Z,4.24
2018-11-20T05:15:03.438Z,4.24
2018-11-20T05:16:03.419Z,4.21
2018-11-20T05:17:03.661Z,4.24
2018-11-20T05:18:03.639Z,4.25
2018-11-20T05:19:03.397Z,4.22
2018-11-20T05:20:03.088Z,4.21
2018-11-20T05:21:03.572Z,4.22
2018-11-20T05:22:03.331Z,4.28
2018-11-20T05:23:03.269Z,4.25
2018-11-20T05:24:03.520Z,4.24
2018-11-20T05:25:03.506Z,4.28
2018-11-20T05:26:03.466Z,4.22
2018-11-20T05:27:03.444Z,4.29
2018-11-20T05:28:03.720Z,4.26
2018-11-20T05:29:03.403Z,4.24
2018-11-20T05:30:03.115Z,4.33
2018-11-20T05:31:03.446Z,4.32
2018-11-20T05:32:03.340Z,4.29
2018-11-20T05:33:03.047Z,4.33
2018-11-20T05:34:03.295Z,4.22
2018-11-20T05:35:03.273Z,4.33
2018-11-20T05:36:02.982Z,4.25
2018-11-20T05:37:02.965Z,4.25
2018-11-20T05:38:03.205Z,4.26
2018-11-20T05:39:02.655Z,4.28
2018-11-20T05:40:02.903Z,4.24
2018-11-20T05:41:02.613Z,4.24
2018-11-20T05:42:02.860Z,4.22
2018-11-20T05:43:02.844Z,4.24
2018-11-20T05:44:02.818Z,4.33
2018-11-20T05:45:02.791Z,4.22
2018-11-20T05:46:02.508Z,4.22
2018-11-20T05:47:03.348Z,4.25
2018-11-20T05:48:02.462Z,4.21
2018-11-20T05:49:02.972Z,4.33
2018-11-20T05:50:02.691Z,4.29
2018-11-20T05:51:02.661Z,4.29
2018-11-20T05:52:02.649Z,4.33
2018-11-20T05:53:02.884Z,4.24
2018-11-20T05:54:02.610Z,4.26
2018-11-20T05:55:02.314Z,4.34
2018-11-20T05:56:02.294Z,4.33
2018-11-20T05:57:02.797Z,4.29
2018-11-20T05:58:03.014Z,4.32
2018-11-20T05:59:02.503Z,4.28
2018-11-20T06:00:02.475Z,4.34
2018-11-20T06:01:02.191Z,4.29
2018-11-20T06:02:02.709Z,4.32
2018-11-20T06:03:02.668Z,4.26
2018-11-20T06:04:02.643Z,4.28
2018-11-20T06:05:02.635Z,4.29
2018-11-20T06:06:02.997Z,4.32
2018-11-20T06:07:02.328Z,4.32
2018-11-20T06:08:02.302Z,4.25
2018-11-20T06:09:02.275Z,4.26
2018-11-20T06:10:02.263Z,4.33
2018-11-20T06:11:02.241Z,4.24
2018-11-20T06:12:02.215Z,4.36
2018-11-20T06:13:02.632Z,4.34
2018-11-20T06:14:02.432Z,4.26
2018-11-20T06:15:02.426Z,4.29
2018-11-20T06:16:02.127Z,4.25
2018-11-20T06:17:02.383Z,4.28
2018-11-20T06:18:01.820Z,4.29
2018-11-20T06:19:02.301Z,4.32
2018-11-20T06:20:02.051Z,4.29
2018-11-20T06:21:02.324Z,4.33
2018-11-20T06:22:01.999Z,4.28
2018-11-20T06:23:02.245Z,4.21
2018-11-20T06:24:01.959Z,4.29
2018-11-20T06:25:01.671Z,4.26
2018-11-20T06:26:01.913Z,4.24
2018-11-20T06:27:01.895Z,4.24
2018-11-20T06:28:01.873Z,4.32
2018-11-20T06:29:01.897Z,4.32
2018-11-20T06:30:02.103Z,4.32
2018-11-20T06:31:02.087Z,4.32
2018-11-20T06:32:02.057Z,4.34
2018-11-20T06:33:01.771Z,4.32
2018-11-20T06:34:01.745Z,4.36
2018-11-20T06:35:02.007Z,4.36
2018-11-20T06:36:01.965Z,4.36
2018-11-20T06:37:01.678Z,4.28
2018-11-20T06:38:01.919Z,4.33
2018-11-20T06:39:01.906Z,4.33
2018-11-20T06:40:01.626Z,4.29
2018-11-20T06:41:01.937Z,4.34
2018-11-20T06:42:01.570Z,4.29
2018-11-20T06:43:01.809Z,4.32
2018-11-20T06:44:01.794Z,4.33
2018-11-20T06:45:01.770Z,4.33
2018-11-20T06:46:01.742Z,4.33
2018-11-20T06:47:01.248Z,4.28
2018-11-20T06:48:01.445Z,4.36
2018-11-20T06:49:01.681Z,4.33
2018-11-20T06:50:01.404Z,4.36
2018-11-20T06:51:01.643Z,4.36
2018-11-20T06:52:01.369Z,4.29
2018-11-20T06:53:02.113Z,4.36
2018-11-20T06:54:01.049Z,4.37
2018-11-20T06:55:01.310Z,4.34
2018-11-20T06:56:01.535Z,4.36
2018-11-20T06:57:01.533Z,4.36
2018-11-20T06:58:01.245Z,4.33
2018-11-20T06:59:01.232Z,4.37
2018-11-20T07:00:01.192Z,4.37
2018-11-20T07:01:01.159Z,4.25
2018-11-20T07:02:01.147Z,4.24
2018-11-20T07:03:01.130Z,4.36
2018-11-20T07:04:01.308Z,4.37
2018-11-20T07:05:01.079Z,4.39
2018-11-20T07:06:00.790Z,4.4
2018-11-20T07:07:01.463Z,4.33
2018-11-20T07:08:01.395Z,4.36
2018-11-20T07:09:01.536Z,4.34
2018-11-20T07:10:00.974Z,4.34
2018-11-20T07:11:00.698Z,4.33
2018-11-20T07:12:00.668Z,4.37
2018-11-20T07:13:00.901Z,4.39
2018-11-20T07:14:00.884Z,4.36
2018-11-20T07:15:01.326Z,4.4
2018-11-20T07:16:02.634Z,4.39
2018-11-20T07:17:00.821Z,4.39
2018-11-20T07:18:00.801Z,4.42
2018-11-20T07:19:01.040Z,4.39
2018-11-20T07:20:01.029Z,4.36
2018-11-20T07:21:00.726Z,4.39
2018-11-20T07:22:00.982Z,4.37
2018-11-20T07:23:00.690Z,4.36
2018-11-20T07:24:00.932Z,4.4
2018-11-20T07:25:00.915Z,4.39
2018-11-20T07:26:00.944Z,4.4
2018-11-20T07:27:00.865Z,4.44
2018-11-20T07:28:00.584Z,4.36
2018-11-20T07:29:00.393Z,4.47
2018-11-20T07:30:00.673Z,4.39
2018-11-20T07:31:00.963Z,4.4
2018-11-20T07:32:00.567Z,4.43
2018-11-20T07:33:00.477Z,4.44
2018-11-20T07:34:00.721Z,4.4
2018-11-20T07:35:00.570Z,4.4
2018-11-20T07:36:00.461Z,4.39
2018-11-20T07:37:01.281Z,4.36
2018-11-20T07:38:00.106Z,4.46
2018-11-20T07:39:00.349Z,4.39
2018-11-20T07:40:00.337Z,4.4
2018-11-20T07:41:00.304Z,4.44
2018-11-20T07:42:00.023Z,4.42
2018-11-20T07:43:00.267Z,4.46
2018-11-20T07:44:01.055Z,4.42
2018-11-20T07:45:00.481Z,4.44
2018-11-20T07:45:59.933Z,4.42
2018-11-20T07:47:00.439Z,4.43
2018-11-20T07:48:00.152Z,4.46
2018-11-20T07:49:00.130Z,4.44
2018-11-20T07:50:00.112Z,4.43
2018-11-20T07:51:00.098Z,4.46
2018-11-20T07:52:00.076Z,4.42
2018-11-20T07:53:00.324Z,4.47
2018-11-20T07:54:00.295Z,4.43
2018-11-20T07:55:00.277Z,4.44
2018-11-20T07:55:59.872Z,4.47
2018-11-20T07:57:00.273Z,4.47
2018-11-20T07:57:59.940Z,4.47
2018-11-20T07:58:59.926Z,4.44
2018-11-20T07:59:59.904Z,4.43
2018-11-20T08:00:59.614Z,4.43
2018-11-20T08:01:59.962Z,4.43
2018-11-20T08:02:59.586Z,4.46
2018-11-20T08:03:59.812Z,4.44
2018-11-20T08:04:59.795Z,4.46
2018-11-20T08:05:59.768Z,4.43
2018-11-20T08:07:00.014Z,4.46
2018-11-20T08:07:59.464Z,4.47
2018-11-20T08:08:59.708Z,4.47
2018-11-20T08:09:59.688Z,4.55
2018-11-20T08:10:59.655Z,4.51
2018-11-20T08:11:59.642Z,4.46
2018-11-20T08:12:59.919Z,4.47
2018-11-20T08:13:59.862Z,4.4
2018-11-20T08:14:59.834Z,4.47
2018-11-20T08:16:00.205Z,4.37
2018-11-20T08:16:59.802Z,4.46
2018-11-20T08:17:59.253Z,4.46
2018-11-20T08:18:59.755Z,4.47
2018-11-20T08:19:59.470Z,4.46
2018-11-20T08:20:59.718Z,4.44
2018-11-20T08:21:59.422Z,4.46
2018-11-20T08:22:59.409Z,4.43
2018-11-20T08:23:59.649Z,4.47
2018-11-20T08:24:59.630Z,4.39
2018-11-20T08:25:59.682Z,4.4
2018-11-20T08:26:59.323Z,4.44
2018-11-20T08:27:59.569Z,4.4
2018-11-20T08:28:59.399Z,4.46
2018-11-20T08:29:59.514Z,4.43
2018-11-20T08:30:59.742Z,4.42
2018-11-20T08:31:58.952Z,4.42
2018-11-20T08:32:59.194Z,4.42
2018-11-20T08:33:59.504Z,4.42
2018-11-20T08:34:59.485Z,4.46
2018-11-20T08:35:59.133Z,4.43
2018-11-20T08:36:59.107Z,4.44
2018-11-20T08:37:59.348Z,4.37
2018-11-20T08:38:59.326Z,4.44
2018-11-20T08:39:59.313Z,4.46
2018-11-20T08:40:59.285Z,4.44
2018-11-20T08:41:59.303Z,4.5
2018-11-20T08:42:59.026Z,4.46
2018-11-20T08:43:59.225Z,4.46
2018-11-20T08:44:59.200Z,4.42
2018-11-20T08:45:59.177Z,4.42
2018-11-20T08:46:58.893Z,4.42
2018-11-20T08:47:59.653Z,4.4
2018-11-20T08:48:59.114Z,4.44
2018-11-20T08:49:58.825Z,4.43
2018-11-20T08:50:59.064Z,4.4
2018-11-20T08:51:59.049Z,4.44
2018-11-20T08:52:59.212Z,4.47
2018-11-20T08:53:59.199Z,4.43
2018-11-20T08:54:58.979Z,4.44
2018-11-20T08:55:58.960Z,4.44
2018-11-20T08:56:58.939Z,4.47
2018-11-20T08:57:58.927Z,4.5
2018-11-20T08:58:58.638Z,4.46
2018-11-20T08:59:58.892Z,4.51
2018-11-20T09:00:58.859Z,4.52
2018-11-20T09:01:58.840Z,4.5
2018-11-20T09:02:58.608Z,4.55
2018-11-20T09:03:59.198Z,4.57
2018-11-20T09:04:58.514Z,4.54
2018-11-20T09:05:58.761Z,4.51
2018-11-20T09:06:58.464Z,4.5
2018-11-20T09:07:58.448Z,4.52
2018-11-20T09:08:58.688Z,4.57
2018-11-20T09:09:58.712Z,4.59
2018-11-20T09:10:58.114Z,4.55
2018-11-20T09:11:58.668Z,4.57
2018-11-20T09:12:58.598Z,4.52
2018-11-20T09:13:58.580Z,4.54
2018-11-20T09:14:58.297Z,4.58
2018-11-20T09:15:58.268Z,4.54
2018-11-20T09:16:58.285Z,4.57
2018-11-20T09:17:58.770Z,4.58
2018-11-20T09:18:58.477Z,4.57
2018-11-20T09:19:58.449Z,4.54
2018-11-20T09:20:57.951Z,4.54
2018-11-20T09:21:58.406Z,4.52
2018-11-20T09:22:58.123Z,4.59
2018-11-20T09:23:58.381Z,4.57
2018-11-20T09:24:58.076Z,4.58
2018-11-20T09:25:57.802Z,4.52
2018-11-20T09:26:58.308Z,4.54
2018-11-20T09:27:58.554Z,4.52
2018-11-20T09:28:57.995Z,4.55
2018-11-20T09:29:57.709Z,4.62
2018-11-20T09:30:57.950Z,4.51
2018-11-20T09:31:57.934Z,4.58
2018-11-20T09:32:58.176Z,4.57
2018-11-20T09:33:58.155Z,4.59
2018-11-20T09:34:58.513Z,4.61
2018-11-20T09:35:58.115Z,4.61
2018-11-20T09:36:58.094Z,4.58
2018-11-20T09:37:57.809Z,4.59
2018-11-20T09:38:58.044Z,4.62
2018-11-20T09:39:58.025Z,4.54
2018-11-20T09:40:57.741Z,4.58
2018-11-20T09:41:57.717Z,4.61
2018-11-20T09:42:57.968Z,4.59
2018-11-20T09:43:57.679Z,4.61
2018-11-20T09:44:57.923Z,4.67
2018-11-20T09:45:57.902Z,4.62
2018-11-20T09:46:58.247Z,4.57
2018-11-20T09:47:57.863Z,4.61
2018-11-20T09:48:57.308Z,4.62
2018-11-20T09:49:57.289Z,4.58
2018-11-20T09:50:57.530Z,4.62
2018-11-20T09:51:57.790Z,4.64
2018-11-20T09:52:58.305Z,4.58
2018-11-20T09:53:57.744Z,4.7
2018-11-20T09:54:57.703Z,4.61
2018-11-20T09:55:57.451Z,4.73
2018-11-20T09:56:57.664Z,4.59
2018-11-20T09:57:57.646Z,4.73
2018-11-20T09:58:57.625Z,4.72
2018-11-20T09:59:57.529Z,4.58
2018-11-20T10:00:57.330Z,4.73
2018-11-20T10:01:57.699Z,4.77
2018-11-20T10:02:57.281Z,4.8
2018-11-20T10:03:57.896Z,4.67
2018-11-20T10:04:57.494Z,4.64
2018-11-20T10:05:57.207Z,4.73
2018-11-20T10:06:57.269Z,4.77
2018-11-20T10:07:57.165Z,4.8
2018-11-20T10:08:57.629Z,4.83
2018-11-20T10:09:57.125Z,4.88
2018-11-20T10:10:56.837Z,4.79
2018-11-20T10:11:57.123Z,4.76
2018-11-20T10:12:56.798Z,4.86
2018-11-20T10:13:57.524Z,4.8
2018-11-20T10:14:58.073Z,4.89
2018-11-20T10:15:57.261Z,4.86
2018-11-20T10:16:57.244Z,4.95
2018-11-20T10:17:56.687Z,4.86
2018-11-20T10:18:57.202Z,4.84
2018-11-20T10:19:56.648Z,4.86
2018-11-20T10:20:57.031Z,4.92
2018-11-20T10:21:56.993Z,4.89
2018-11-20T10:22:56.859Z,4.88
2018-11-20T10:23:57.435Z,4.91
2018-11-20T10:24:57.120Z,4.88
2018-11-20T10:25:58.020Z,4.92
2018-11-20T10:26:56.762Z,4.98
2018-11-20T10:27:57.005Z,5.02
2018-11-20T10:28:56.988Z,4.98
2018-11-20T10:29:56.699Z,5.01
2018-11-20T10:30:56.460Z,4.94
2018-11-20T10:31:56.660Z,4.98
2018-11-20T10:32:56.647Z,4.98
2018-11-20T10:33:56.884Z,4.92
2018-11-20T10:34:57.246Z,4.96
2018-11-20T10:35:56.841Z,5.04
2018-11-20T10:36:56.822Z,4.96
2018-11-20T10:37:56.535Z,4.95
2018-11-20T10:38:56.510Z,4.96
2018-11-20T10:39:56.491Z,4.96
2018-11-20T10:40:56.736Z,4.99
2018-11-20T10:41:56.454Z,4.91
2018-11-20T10:42:56.695Z,4.98
2018-11-20T10:43:56.414Z,4.98
2018-11-20T10:44:56.646Z,4.88
2018-11-20T10:45:56.116Z,5.01
2018-11-20T10:46:56.349Z,4.95
2018-11-20T10:47:56.329Z,4.99
2018-11-20T10:48:56.576Z,4.92
2018-11-20T10:49:56.552Z,4.95
2018-11-20T10:50:56.305Z,4.89
2018-11-20T10:51:55.971Z,4.96
2018-11-20T10:52:56.485Z,5.04
2018-11-20T10:53:56.201Z,4.99
2018-11-20T10:54:56.446Z,4.94
2018-11-20T10:55:56.419Z,4.95
2018-11-20T10:56:56.400Z,5.05
2018-11-20T10:57:56.118Z,5.09
2018-11-20T10:58:56.105Z,5.07
2018-11-20T10:59:56.080Z,5.07
2018-11-20T11:00:56.317Z,5.07
2018-11-20T11:01:56.033Z,5.09
2018-11-20T11:02:56.009Z,5.04
2018-11-20T11:03:55.991Z,5.09
2018-11-20T11:04:56.115Z,5.09
2018-11-20T11:05:56.239Z,5.04
2018-11-20T11:06:56.597Z,5.04
2018-11-20T11:07:56.343Z,4.92
2018-11-20T11:08:56.146Z,5.01
2018-11-20T11:09:56.123Z,5.04
2018-11-20T11:10:56.110Z,4.98
2018-11-20T11:11:55.571Z,4.92
2018-11-20T11:12:55.811Z,4.89
2018-11-20T11:13:56.047Z,4.89
2018-11-20T11:14:55.763Z,4.94
2018-11-20T11:15:55.742Z,4.96
2018-11-20T11:16:55.504Z,4.91
2018-11-20T11:17:55.960Z,4.86
2018-11-20T11:18:55.949Z,4.96
2018-11-20T11:19:55.923Z,4.94
2018-11-20T11:20:56.184Z,4.91
2018-11-20T11:21:55.769Z,4.95
2018-11-20T11:22:58.146Z,4.96
2018-11-20T11:23:55.841Z,4.96
2018-11-20T11:24:55.816Z,4.95
2018-11-20T11:25:55.533Z,4.99
2018-11-20T11:26:55.507Z,4.94
2018-11-20T11:27:55.488Z,4.94
2018-11-20T11:28:56.151Z,5.04
2018-11-20T11:29:55.716Z,5.02
2018-11-20T11:30:55.431Z,4.99
2018-11-20T11:31:55.681Z,4.94
2018-11-20T11:32:55.648Z,4.91
2018-11-20T11:33:55.368Z,4.95
2018-11-20T11:34:55.084Z,4.96
2018-11-20T11:35:55.056Z,4.92
2018-11-20T11:36:55.309Z,4.94
2018-11-20T11:37:55.019Z,4.96
2018-11-20T11:38:55.543Z,4.94
2018-11-20T11:39:55.003Z,4.95
2018-11-20T11:40:55.222Z,4.95
2018-11-20T11:41:55.193Z,4.91
2018-11-20T11:42:55.461Z,4.95
2018-11-20T11:43:55.171Z,4.99
2018-11-20T11:44:55.403Z,4.95
2018-11-20T11:45:55.125Z,4.98
2018-11-20T11:46:55.357Z,4.91
2018-11-20T11:47:55.077Z,4.92
2018-11-20T11:48:55.052Z,4.95
2018-11-20T11:49:54.764Z,4.96
2018-11-20T11:50:55.285Z,4.94
2018-11-20T11:51:54.724Z,4.99
2018-11-20T11:52:54.748Z,4.98
2018-11-20T11:53:55.210Z,4.92
2018-11-20T11:54:54.682Z,4.98
2018-11-20T11:55:54.907Z,4.96
2018-11-20T11:56:54.893Z,4.94
2018-11-20T11:57:54.867Z,4.95
2018-11-20T11:58:54.843Z,4.89
2018-11-20T11:59:54.843Z,4.96
2018-11-20T12:00:54.539Z,4.88
2018-11-20T12:03:55.012Z,4.91
2018-11-20T12:04:54.721Z,4.94
2018-11-20T12:05:58.460Z,4.83
2018-11-20T12:06:54.948Z,4.89
2018-11-20T12:07:54.925Z,4.84
2018-11-20T12:08:54.929Z,4.8
2018-11-20T12:09:54.884Z,4.91
2018-11-20T12:10:54.605Z,4.8
2018-11-20T12:11:54.844Z,4.84
2018-11-20T12:12:54.815Z,4.8
2018-11-20T12:13:54.799Z,4.91
2018-11-20T12:14:54.509Z,4.91
2018-11-20T12:15:54.492Z,4.83
2018-11-20T12:16:54.466Z,4.8
2018-11-20T12:17:54.460Z,4.77
2018-11-20T12:18:58.286Z,4.79
2018-11-20T12:19:54.667Z,4.76
2018-11-20T12:20:54.385Z,4.89
2018-11-20T12:21:54.362Z,4.77
2018-11-20T12:22:54.347Z,4.88
2018-11-20T12:23:54.581Z,4.8
2018-11-20T12:24:54.569Z,4.72
2018-11-20T12:25:54.543Z,4.8
2018-11-20T12:26:54.525Z,4.77
2018-11-20T12:27:56.519Z,4.8
2018-11-20T12:28:55.767Z,4.77
2018-11-20T12:29:55.465Z,4.69
2018-11-20T12:30:58.179Z,4.7
2018-11-20T12:31:54.153Z,4.72
2018-11-20T12:32:54.210Z,4.77
2018-11-20T12:33:54.398Z,4.67
2018-11-20T12:34:56.606Z,4.7
2018-11-20T12:35:54.543Z,4.65
2018-11-20T12:36:54.063Z,4.64
2018-11-20T12:37:54.029Z,4.62
2018-11-20T12:38:54.014Z,4.69
2018-11-20T12:39:54.259Z,4.67
2018-11-20T12:40:53.965Z,4.65
2018-11-20T12:41:54.209Z,4.75
2018-11-20T12:42:54.185Z,4.65
2018-11-20T12:43:54.793Z,4.79
2018-11-20T12:44:54.324Z,4.64
2018-11-20T12:45:55.807Z,4.77
2018-11-20T12:46:55.788Z,4.64
2018-11-20T12:47:54.085Z,4.77
2018-11-20T12:48:54.064Z,4.69
2018-11-20T12:49:54.394Z,4.7
2018-11-20T12:50:53.755Z,4.67
2018-11-20T12:51:53.729Z,4.79
2018-11-20T12:52:53.979Z,4.69
2018-11-20T12:53:53.686Z,4.7
2018-11-20T12:54:56.922Z,4.77
2018-11-20T12:55:54.865Z,4.75
2018-11-20T12:56:53.963Z,4.7
2018-11-20T12:57:54.058Z,4.79
2018-11-20T12:58:54.098Z,4.73
2018-11-20T12:59:53.822Z,4.76
2018-11-20T13:00:53.801Z,4.7
2018-11-20T13:01:55.062Z,4.79
2018-11-20T13:02:53.759Z,4.72
2018-11-20T13:03:54.845Z,4.91
2018-11-20T13:04:55.232Z,4.89
2018-11-20T13:05:53.699Z,4.77
2018-11-20T13:06:53.684Z,4.79
2018-11-20T13:07:53.662Z,4.79
2018-11-20T13:08:53.633Z,4.8
2018-11-20T13:09:53.679Z,4.91
2018-11-20T13:10:53.328Z,4.92
2018-11-20T13:11:53.308Z,4.89
2018-11-20T13:12:53.285Z,4.89
2018-11-20T13:13:56.550Z,4.91
2018-11-20T13:14:54.342Z,4.92
2018-11-20T13:15:54.166Z,4.91
2018-11-20T13:16:53.201Z,4.95
2018-11-20T13:17:54.031Z,4.96
2018-11-20T13:18:56.837Z,4.94
2018-11-20T13:19:53.145Z,4.99
2018-11-20T13:20:55.179Z,4.91
2018-11-20T13:21:53.100Z,4.88